North Palm Beach, FL (33408)

6:56 PM EST on December 26, 2014 (GMT -0500)
onSpot wifi - Bluffs Marina | Change Station
CLOSE
Current Station
Personal Weather Station
Location: Jupiter, FL
Elevation: 16 ft
Nearby Weather Stations

Elev 16 ft 26.89 °N, 80.07 °W | Updated 6 seconds ago

Overcast
Overcast
73.9 °F
Feels Like 72 °F
N
4.0
Wind Variable Wind from NE
Gusts 11.0 mph

Today
High -- | Low -- °F
--% Chance of Precip.
Yesterday
High -- | Low -- °F
Precip. -- in
7:07 AM 5:34 PM
Waxing Crescent, 30% visible
Pressure 30.16 in
Visibility 10.0 miles
Clouds Scattered Clouds 1100 ft
Overcast 3200 ft
Heat Index 72 °F
Dew Point 71 °F
Humidity 92%
Rainfall 0.00 in
Snow Depth Not available.
UV 0 out of 12
Pollen 4.50 out of 12
Air Quality Not available.
Flu Activity Not available.
SPECI KPBI 262330Z 02004KT 10SM SCT011 OVC032 23/22 A3016 RMK AO2 RAE2257 P0000 T02330222

More Conditions Fewer Conditions

Pressure 30.16 in
Visibility 10.0 miles
Clouds Scattered Clouds 1100 ft
Overcast 3200 ft
Heat Index 72 °F
Dew Point 71 °F
Humidity 92%
Rainfall 0.00 in
Snow Depth Not available.
UV 0 out of 12
Pollen 4.50 out of 12
Air Quality Not available.
Flu Activity Not available.
SPECI KPBI 262330Z 02004KT 10SM SCT011 OVC032 23/22 A3016 RMK AO2 RAE2257 P0000 T02330222

More Conditions Fewer Conditions

10-Day Weather Forecast

Almanac

Astronomy

Dec. 26, 2014 Rise Set
Actual Time
Civil Twilight
Nautical Twilight
Astronomical Twilight
Moon
Length of Visible Light
Length of Day
Tomorrow will be .
, % of the Moon is Illuminated

Today's Extremes

State Highs State Lows

Community

WunderPhotos

Upload Photos

1,780,769 photos uploaded!

WunderBlogs® & News

Nearby

Air Quality

  Air Quality AQ Index Pollutant
Not available.

Snow Depth

Station Depth Elevation

Earthquake Activity

City Distance Mag. Time & Date
Minimum magnitude displayed is 2.5.

Coastal Water Temperatures

Place Temperature

Nearby Weather Stations